Saint Joseph, Minnesota
Current Conditions -  °F | °C
As of 12:14 PM on Sunday 21 Dec 2014 (Local Time) from KSTC Reporting Station
Haze Haze  
Wind Chill: 27°   Ceiling: 300
Heat Index: 35°   Visibility: 1mi
Dew Point: 33°   Wind: 12mph
Humidity: 92%   Direction: 140°SE
Pressure: 29.75"   Gusts: NA
Location:  45.56°N, 94.32°W
Report Text: KSTC 211814Z 14010KT 1SM BR OVC003 02/01 A2975 RMK AO2 T00170006
Loading
Personal Weather Stations






























Interactive Weather Map New forecast layout! Learn more

10-Day Weather Forecast

Advertisements
Track Severe Weather on mobile